sensor_id;sensor_type;location;lat;lon;timestamp;P1;durP1;ratioP1;P2;durP2;ratioP2
54641;SDS011;40536;53.194;5.728;2023-04-01T00:00:27;44.35;;;41.65;;
54641;SDS011;40536;53.194;5.728;2023-04-01T00:02:53;40.45;;;38.13;;
54641;SDS011;40536;53.194;5.728;2023-04-01T00:05:18;42.05;;;39.45;;
54641;SDS011;40536;53.194;5.728;2023-04-01T00:07:45;46.00;;;43.42;;
54641;SDS011;40536;53.194;5.728;2023-04-01T00:10:11;41.58;;;39.08;;
54641;SDS011;40536;53.194;5.728;2023-04-01T00:12:38;40.55;;;37.97;;
54641;SDS011;40536;53.194;5.728;2023-04-01T00:15:05;38.85;;;36.38;;
54641;SDS011;40536;53.194;5.728;2023-04-01T00:17:34;35.28;;;32.97;;
54641;SDS011;40536;53.194;5.728;2023-04-01T00:19:59;42.58;;;39.80;;
54641;SDS011;40536;53.194;5.728;2023-04-01T00:22:26;37.75;;;35.30;;
54641;SDS011;40536;53.194;5.728;2023-04-01T00:24:52;40.92;;;38.22;;
54641;SDS011;40536;53.194;5.728;2023-04-01T00:27:18;40.17;;;37.67;;
54641;SDS011;40536;53.194;5.728;2023-04-01T00:29:45;45.58;;;42.85;;
54641;SDS011;40536;53.194;5.728;2023-04-01T00:32:12;44.92;;;42.00;;
54641;SDS011;40536;53.194;5.728;2023-04-01T00:34:39;40.20;;;37.50;;
54641;SDS011;40536;53.194;5.728;2023-04-01T00:37:09;40.35;;;37.70;;
54641;SDS011;40536;53.194;5.728;2023-04-01T00:39:35;42.63;;;39.85;;
54641;SDS011;40536;53.194;5.728;2023-04-01T00:42:01;43.10;;;40.22;;
54641;SDS011;40536;53.194;5.728;2023-04-01T00:44:32;35.72;;;33.13;;
54641;SDS011;40536;53.194;5.728;2023-04-01T00:46:59;46.10;;;43.10;;
54641;SDS011;40536;53.194;5.728;2023-04-01T00:49:27;40.53;;;37.75;;
54641;SDS011;40536;53.194;5.728;2023-04-01T00:52:10;41.25;;;38.65;;
54641;SDS011;40536;53.194;5.728;2023-04-01T00:54:38;39.47;;;36.85;;
54641;SDS011;40536;53.194;5.728;2023-04-01T00:57:09;41.53;;;38.70;;
54641;SDS011;40536;53.194;5.728;2023-04-01T00:59:43;48.22;;;45.15;;
54641;SDS011;40536;53.194;5.728;2023-04-01T01:02:13;42.30;;;39.55;;
54641;SDS011;40536;53.194;5.728;2023-04-01T01:04:40;49.90;;;46.80;;
54641;SDS011;40536;53.194;5.728;2023-04-01T01:12:57;38.45;;;35.75;;
54641;SDS011;40536;53.194;5.728;2023-04-01T01:27:08;44.88;;;41.60;;
54641;SDS011;40536;53.194;5.728;2023-04-01T01:29:42;42.38;;;39.45;;
54641;SDS011;40536;53.194;5.728;2023-04-01T01:37:39;41.22;;;38.35;;
54641;SDS011;40536;53.194;5.728;2023-04-01T01:40:08;40.95;;;38.25;;
54641;SDS011;40536;53.194;5.728;2023-04-01T01:42:38;40.10;;;37.35;;
54641;SDS011;40536;53.194;5.728;2023-04-01T01:45:07;44.00;;;40.90;;
54641;SDS011;40536;53.194;5.728;2023-04-01T01:47:35;39.53;;;36.45;;
54641;SDS011;40536;53.194;5.728;2023-04-01T01:50:02;43.70;;;40.72;;
54641;SDS011;40536;53.194;5.728;2023-04-01T01:52:30;43.35;;;40.42;;
54641;SDS011;40536;53.194;5.728;2023-04-01T01:54:56;46.83;;;43.58;;
54641;SDS011;40536;53.194;5.728;2023-04-01T01:57:23;48.13;;;45.00;;
54641;SDS011;40536;53.194;5.728;2023-04-01T01:59:52;45.47;;;42.17;;
54641;SDS011;40536;53.194;5.728;2023-04-01T02:02:23;62.88;;;58.95;;
54641;SDS011;40536;53.194;5.728;2023-04-01T02:04:50;49.63;;;46.35;;
54641;SDS011;40536;53.194;5.728;2023-04-01T02:07:21;62.20;;;58.17;;
54641;SDS011;40536;53.194;5.728;2023-04-01T02:09:52;68.93;;;64.65;;
54641;SDS011;40536;53.194;5.728;2023-04-01T02:12:19;55.50;;;51.70;;
54641;SDS011;40536;53.194;5.728;2023-04-01T02:17:17;52.95;;;49.50;;
54641;SDS011;40536;53.194;5.728;2023-04-01T02:19:55;63.65;;;59.58;;
54641;SDS011;40536;53.194;5.728;2023-04-01T02:22:25;49.53;;;46.25;;
54641;SDS011;40536;53.194;5.728;2023-04-01T02:24:54;51.15;;;47.70;;
54641;SDS011;40536;53.194;5.728;2023-04-01T02:27:24;52.83;;;49.13;;
54641;SDS011;40536;53.194;5.728;2023-04-01T02:29:51;53.67;;;50.28;;
54641;SDS011;40536;53.194;5.728;2023-04-01T02:32:17;56.28;;;52.67;;
54641;SDS011;40536;53.194;5.728;2023-04-01T02:34:45;53.05;;;49.35;;
54641;SDS011;40536;53.194;5.728;2023-04-01T02:37:12;59.10;;;55.30;;
54641;SDS011;40536;53.194;5.728;2023-04-01T02:39:39;57.97;;;54.28;;
54641;SDS011;40536;53.194;5.728;2023-04-01T02:42:05;53.72;;;50.05;;
54641;SDS011;40536;53.194;5.728;2023-04-01T02:44:31;57.17;;;53.33;;
54641;SDS011;40536;53.194;5.728;2023-04-01T02:46:57;58.75;;;54.78;;
54641;SDS011;40536;53.194;5.728;2023-04-01T02:49:22;54.45;;;50.70;;
54641;SDS011;40536;53.194;5.728;2023-04-01T02:51:48;57.75;;;53.67;;
54641;SDS011;40536;53.194;5.728;2023-04-01T02:54:14;56.15;;;52.50;;
54641;SDS011;40536;53.194;5.728;2023-04-01T02:56:40;56.92;;;53.08;;
54641;SDS011;40536;53.194;5.728;2023-04-01T02:59:05;59.10;;;55.20;;
54641;SDS011;40536;53.194;5.728;2023-04-01T03:01:31;66.53;;;62.45;;
54641;SDS011;40536;53.194;5.728;2023-04-01T03:03:57;59.53;;;55.60;;
54641;SDS011;40536;53.194;5.728;2023-04-01T03:06:22;59.50;;;55.30;;
54641;SDS011;40536;53.194;5.728;2023-04-01T03:08:48;65.63;;;61.05;;
54641;SDS011;40536;53.194;5.728;2023-04-01T03:11:14;66.57;;;62.38;;
54641;SDS011;40536;53.194;5.728;2023-04-01T03:13:40;76.80;;;71.93;;
54641;SDS011;40536;53.194;5.728;2023-04-01T03:16:05;50.85;;;47.33;;
54641;SDS011;40536;53.194;5.728;2023-04-01T03:18:31;66.70;;;62.22;;
54641;SDS011;40536;53.194;5.728;2023-04-01T03:20:57;58.65;;;54.65;;
54641;SDS011;40536;53.194;5.728;2023-04-01T03:23:22;63.75;;;59.40;;
54641;SDS011;40536;53.194;5.728;2023-04-01T03:25:49;54.20;;;50.33;;
54641;SDS011;40536;53.194;5.728;2023-04-01T03:28:15;54.58;;;50.53;;
54641;SDS011;40536;53.194;5.728;2023-04-01T03:30:41;53.53;;;48.72;;
54641;SDS011;40536;53.194;5.728;2023-04-01T03:33:13;59.33;;;55.25;;
54641;SDS011;40536;53.194;5.728;2023-04-01T03:35:39;51.28;;;47.40;;
54641;SDS011;40536;53.194;5.728;2023-04-01T03:38:04;58.55;;;54.40;;
54641;SDS011;40536;53.194;5.728;2023-04-01T03:40:30;59.42;;;55.25;;
54641;SDS011;40536;53.194;5.728;2023-04-01T03:42:58;63.67;;;59.53;;
54641;SDS011;40536;53.194;5.728;2023-04-01T03:45:23;59.30;;;55.17;;
54641;SDS011;40536;53.194;5.728;2023-04-01T03:47:49;75.75;;;71.05;;
54641;SDS011;40536;53.194;5.728;2023-04-01T03:50:15;64.43;;;60.13;;
54641;SDS011;40536;53.194;5.728;2023-04-01T03:52:40;53.72;;;49.97;;
54641;SDS011;40536;53.194;5.728;2023-04-01T03:55:06;76.05;;;70.80;;
54641;SDS011;40536;53.194;5.728;2023-04-01T03:57:32;60.85;;;56.83;;
54641;SDS011;40536;53.194;5.728;2023-04-01T03:59:58;61.30;;;56.97;;
54641;SDS011;40536;53.194;5.728;2023-04-01T04:02:24;63.88;;;59.53;;
54641;SDS011;40536;53.194;5.728;2023-04-01T04:04:49;66.25;;;61.20;;
54641;SDS011;40536;53.194;5.728;2023-04-01T04:07:15;47.80;;;44.55;;
54641;SDS011;40536;53.194;5.728;2023-04-01T04:09:41;59.35;;;55.50;;
54641;SDS011;40536;53.194;5.728;2023-04-01T04:12:06;63.88;;;59.75;;
54641;SDS011;40536;53.194;5.728;2023-04-01T04:14:32;61.47;;;57.30;;
54641;SDS011;40536;53.194;5.728;2023-04-01T04:16:58;63.70;;;59.53;;
54641;SDS011;40536;53.194;5.728;2023-04-01T04:19:23;63.40;;;59.22;;
54641;SDS011;40536;53.194;5.728;2023-04-01T04:21:49;73.18;;;68.47;;
54641;SDS011;40536;53.194;5.728;2023-04-01T04:24:15;55.85;;;51.80;;
54641;SDS011;40536;53.194;5.728;2023-04-01T04:26:40;80.05;;;74.78;;
54641;SDS011;40536;53.194;5.728;2023-04-01T04:29:06;61.38;;;56.83;;
54641;SDS011;40536;53.194;5.728;2023-04-01T04:31:32;57.25;;;53.25;;
54641;SDS011;40536;53.194;5.728;2023-04-01T04:33:59;62.08;;;57.33;;
54641;SDS011;40536;53.194;5.728;2023-04-01T04:36:26;57.22;;;52.83;;
54641;SDS011;40536;53.194;5.728;2023-04-01T04:38:51;63.22;;;58.60;;
54641;SDS011;40536;53.194;5.728;2023-04-01T04:41:17;85.53;;;79.95;;
54641;SDS011;40536;53.194;5.728;2023-04-01T04:43:48;71.47;;;66.15;;
54641;SDS011;40536;53.194;5.728;2023-04-01T04:46:16;62.13;;;57.20;;
54641;SDS011;40536;53.194;5.728;2023-04-01T04:48:41;60.72;;;56.10;;
54641;SDS011;40536;53.194;5.728;2023-04-01T04:51:11;79.18;;;73.80;;
54641;SDS011;40536;53.194;5.728;2023-04-01T04:53:39;62.88;;;57.80;;
54641;SDS011;40536;53.194;5.728;2023-04-01T04:56:05;76.93;;;71.22;;
54641;SDS011;40536;53.194;5.728;2023-04-01T04:58:31;66.10;;;60.88;;
54641;SDS011;40536;53.194;5.728;2023-04-01T05:00:57;69.80;;;64.47;;
54641;SDS011;40536;53.194;5.728;2023-04-01T05:03:23;68.57;;;62.95;;
54641;SDS011;40536;53.194;5.728;2023-04-01T05:05:50;76.10;;;70.50;;
54641;SDS011;40536;53.194;5.728;2023-04-01T05:08:18;72.78;;;66.90;;
54641;SDS011;40536;53.194;5.728;2023-04-01T05:10:43;64.50;;;59.60;;
54641;SDS011;40536;53.194;5.728;2023-04-01T05:13:10;69.15;;;63.58;;
54641;SDS011;40536;53.194;5.728;2023-04-01T05:15:35;88.97;;;82.63;;
54641;SDS011;40536;53.194;5.728;2023-04-01T05:18:02;86.43;;;80.07;;
54641;SDS011;40536;53.194;5.728;2023-04-01T05:20:28;79.35;;;73.28;;
54641;SDS011;40536;53.194;5.728;2023-04-01T05:22:57;86.60;;;80.35;;
54641;SDS011;40536;53.194;5.728;2023-04-01T05:25:23;79.82;;;74.47;;
54641;SDS011;40536;53.194;5.728;2023-04-01T05:27:49;104.13;;;97.18;;
54641;SDS011;40536;53.194;5.728;2023-04-01T05:30:15;85.80;;;79.30;;
54641;SDS011;40536;53.194;5.728;2023-04-01T05:32:46;87.40;;;81.18;;
54641;SDS011;40536;53.194;5.728;2023-04-01T05:35:12;107.30;;;99.68;;
54641;SDS011;40536;53.194;5.728;2023-04-01T05:37:41;94.53;;;88.15;;
54641;SDS011;40536;53.194;5.728;2023-04-01T05:40:07;87.10;;;80.88;;
54641;SDS011;40536;53.194;5.728;2023-04-01T05:42:33;182.30;;;170.10;;
54641;SDS011;40536;53.194;5.728;2023-04-01T05:44:59;96.75;;;90.22;;
54641;SDS011;40536;53.194;5.728;2023-04-01T05:47:24;92.50;;;85.65;;
54641;SDS011;40536;53.194;5.728;2023-04-01T05:49:50;141.70;;;132.70;;
54641;SDS011;40536;53.194;5.728;2023-04-01T05:52:16;97.90;;;91.15;;
54641;SDS011;40536;53.194;5.728;2023-04-01T05:54:41;108.80;;;101.50;;
54641;SDS011;40536;53.194;5.728;2023-04-01T05:57:07;88.28;;;81.80;;
54641;SDS011;40536;53.194;5.728;2023-04-01T05:59:33;112.97;;;105.43;;
54641;SDS011;40536;53.194;5.728;2023-04-01T06:02:00;98.47;;;91.93;;
54641;SDS011;40536;53.194;5.728;2023-04-01T06:04:26;98.72;;;91.72;;
54641;SDS011;40536;53.194;5.728;2023-04-01T06:06:57;105.45;;;97.70;;
54641;SDS011;40536;53.194;5.728;2023-04-01T06:09:27;104.13;;;97.00;;
54641;SDS011;40536;53.194;5.728;2023-04-01T06:17:29;164.45;;;154.10;;
54641;SDS011;40536;53.194;5.728;2023-04-01T06:25:59;140.43;;;131.27;;
54641;SDS011;40536;53.194;5.728;2023-04-01T06:34:25;109.95;;;102.47;;
54641;SDS011;40536;53.194;5.728;2023-04-01T06:42:30;141.75;;;133.57;;
54641;SDS011;40536;53.194;5.728;2023-04-01T06:53:54;98.72;;;92.68;;
54641;SDS011;40536;53.194;5.728;2023-04-01T06:56:15;112.40;;;104.55;;
54641;SDS011;40536;53.194;5.728;2023-04-01T06:58:51;140.90;;;132.30;;
54641;SDS011;40536;53.194;5.728;2023-04-01T07:01:30;136.57;;;126.78;;
54641;SDS011;40536;53.194;5.728;2023-04-01T07:04:02;259.58;;;239.15;;
54641;SDS011;40536;53.194;5.728;2023-04-01T07:06:39;133.10;;;123.40;;
54641;SDS011;40536;53.194;5.728;2023-04-01T07:09:13;151.98;;;142.38;;
54641;SDS011;40536;53.194;5.728;2023-04-01T07:11:43;145.10;;;135.30;;
54641;SDS011;40536;53.194;5.728;2023-04-01T07:14:22;130.25;;;121.53;;
54641;SDS011;40536;53.194;5.728;2023-04-01T07:19:53;154.35;;;143.27;;
54641;SDS011;40536;53.194;5.728;2023-04-01T07:22:47;131.38;;;122.03;;
54641;SDS011;40536;53.194;5.728;2023-04-01T07:25:17;116.38;;;108.18;;
54641;SDS011;40536;53.194;5.728;2023-04-01T07:28:11;233.20;;;216.55;;
54641;SDS011;40536;53.194;5.728;2023-04-01T07:30:44;167.55;;;155.75;;
54641;SDS011;40536;53.194;5.728;2023-04-01T07:33:22;111.95;;;103.38;;
54641;SDS011;40536;53.194;5.728;2023-04-01T07:35:53;211.82;;;197.27;;
54641;SDS011;40536;53.194;5.728;2023-04-01T07:44:34;275.38;;;253.07;;
54641;SDS011;40536;53.194;5.728;2023-04-01T07:49:48;151.73;;;139.52;;
54641;SDS011;40536;53.194;5.728;2023-04-01T07:52:41;237.25;;;219.10;;
54641;SDS011;40536;53.194;5.728;2023-04-01T07:58:38;114.90;;;106.07;;
54641;SDS011;40536;53.194;5.728;2023-04-01T08:09:20;171.40;;;158.07;;
54641;SDS011;40536;53.194;5.728;2023-04-01T08:20:37;155.45;;;145.02;;
54641;SDS011;40536;53.194;5.728;2023-04-01T08:25:40;300.00;;;280.45;;
54641;SDS011;40536;53.194;5.728;2023-04-01T08:31:08;149.77;;;141.13;;
54641;SDS011;40536;53.194;5.728;2023-04-01T08:33:38;222.98;;;210.25;;
54641;SDS011;40536;53.194;5.728;2023-04-01T08:36:10;58.05;;;54.17;;
54641;SDS011;40536;53.194;5.728;2023-04-01T08:38:44;164.30;;;152.30;;
54641;SDS011;40536;53.194;5.728;2023-04-01T08:41:32;60.95;;;56.97;;
54641;SDS011;40536;53.194;5.728;2023-04-01T09:08:48;64.28;;;60.00;;
54641;SDS011;40536;53.194;5.728;2023-04-01T09:17:08;91.80;;;85.00;;
54641;SDS011;40536;53.194;5.728;2023-04-01T09:25:24;111.05;;;104.38;;
54641;SDS011;40536;53.194;5.728;2023-04-01T09:30:48;67.45;;;63.63;;
54641;SDS011;40536;53.194;5.728;2023-04-01T09:33:39;45.60;;;42.97;;
54641;SDS011;40536;53.194;5.728;2023-04-01T09:39:34;53.53;;;50.17;;
54641;SDS011;40536;53.194;5.728;2023-04-01T09:44:58;45.17;;;42.67;;
54641;SDS011;40536;53.194;5.728;2023-04-01T09:57:34;22.95;;;21.23;;
54641;SDS011;40536;53.194;5.728;2023-04-01T10:06:06;39.47;;;36.92;;
54641;SDS011;40536;53.194;5.728;2023-04-01T10:17:25;137.05;;;126.80;;
54641;SDS011;40536;53.194;5.728;2023-04-01T10:25:36;35.15;;;33.17;;
54641;SDS011;40536;53.194;5.728;2023-04-01T10:33:44;50.83;;;47.78;;
54641;SDS011;40536;53.194;5.728;2023-04-01T10:50:30;30.52;;;28.75;;
54641;SDS011;40536;53.194;5.728;2023-04-01T10:53:40;70.57;;;66.82;;
54641;SDS011;40536;53.194;5.728;2023-04-01T11:34:59;67.65;;;63.33;;
54641;SDS011;40536;53.194;5.728;2023-04-01T11:40:17;33.88;;;31.73;;
54641;SDS011;40536;53.194;5.728;2023-04-01T11:42:55;41.50;;;38.95;;
54641;SDS011;40536;53.194;5.728;2023-04-01T11:45:30;48.65;;;46.15;;
54641;SDS011;40536;53.194;5.728;2023-04-01T12:05:17;53.30;;;50.47;;
54641;SDS011;40536;53.194;5.728;2023-04-01T12:08:04;32.72;;;30.73;;
54641;SDS011;40536;53.194;5.728;2023-04-01T12:11:23;33.03;;;31.02;;
54641;SDS011;40536;53.194;5.728;2023-04-01T12:21:58;25.75;;;24.10;;
54641;SDS011;40536;53.194;5.728;2023-04-01T12:44:03;23.38;;;21.85;;
54641;SDS011;40536;53.194;5.728;2023-04-01T12:52:33;29.77;;;28.13;;
54641;SDS011;40536;53.194;5.728;2023-04-01T13:00:54;50.08;;;46.85;;
54641;SDS011;40536;53.194;5.728;2023-04-01T13:06:27;36.88;;;34.90;;
54641;SDS011;40536;53.194;5.728;2023-04-01T13:25:39;39.30;;;36.90;;
54641;SDS011;40536;53.194;5.728;2023-04-01T13:28:18;41.92;;;38.85;;
54641;SDS011;40536;53.194;5.728;2023-04-01T13:34:08;80.15;;;75.97;;
54641;SDS011;40536;53.194;5.728;2023-04-01T13:36:55;24.05;;;22.30;;
54641;SDS011;40536;53.194;5.728;2023-04-01T13:39:52;71.95;;;67.68;;
54641;SDS011;40536;53.194;5.728;2023-04-01T13:42:34;26.73;;;25.27;;
54641;SDS011;40536;53.194;5.728;2023-04-01T14:05:11;33.15;;;30.92;;
54641;SDS011;40536;53.194;5.728;2023-04-01T14:10:13;36.13;;;34.00;;
54641;SDS011;40536;53.194;5.728;2023-04-01T14:18:33;45.00;;;42.67;;
54641;SDS011;40536;53.194;5.728;2023-04-01T14:21:23;57.05;;;54.17;;
54641;SDS011;40536;53.194;5.728;2023-04-01T14:24:08;29.30;;;27.77;;
54641;SDS011;40536;53.194;5.728;2023-04-01T14:29:32;21.27;;;19.98;;
54641;SDS011;40536;53.194;5.728;2023-04-01T14:40:56;37.75;;;35.75;;
54641;SDS011;40536;53.194;5.728;2023-04-01T14:49:36;76.95;;;70.30;;
54641;SDS011;40536;53.194;5.728;2023-04-01T14:52:22;51.72;;;48.72;;
54641;SDS011;40536;53.194;5.728;2023-04-01T14:54:59;33.28;;;30.83;;
54641;SDS011;40536;53.194;5.728;2023-04-01T14:57:30;82.20;;;76.43;;
54641;SDS011;40536;53.194;5.728;2023-04-01T15:00:00;24.77;;;22.75;;
54641;SDS011;40536;53.194;5.728;2023-04-01T15:07:38;45.70;;;43.03;;
54641;SDS011;40536;53.194;5.728;2023-04-01T15:10:21;78.80;;;74.30;;
54641;SDS011;40536;53.194;5.728;2023-04-01T15:13:11;24.77;;;22.92;;
54641;SDS011;40536;53.194;5.728;2023-04-01T15:23:56;40.58;;;37.67;;
54641;SDS011;40536;53.194;5.728;2023-04-01T15:32:02;25.50;;;23.50;;
54641;SDS011;40536;53.194;5.728;2023-04-01T15:37:36;42.22;;;39.47;;
54641;SDS011;40536;53.194;5.728;2023-04-01T15:40:23;79.90;;;73.85;;
54641;SDS011;40536;53.194;5.728;2023-04-01T15:52:07;30.83;;;28.45;;
54641;SDS011;40536;53.194;5.728;2023-04-01T16:00:19;23.23;;;21.20;;
54641;SDS011;40536;53.194;5.728;2023-04-01T16:22:08;47.03;;;43.97;;
54641;SDS011;40536;53.194;5.728;2023-04-01T16:24:50;61.25;;;57.22;;
54641;SDS011;40536;53.194;5.728;2023-04-01T16:36:07;41.95;;;38.75;;
54641;SDS011;40536;53.194;5.728;2023-04-01T16:38:59;34.30;;;32.00;;
54641;SDS011;40536;53.194;5.728;2023-04-01T16:41:52;23.75;;;21.65;;
54641;SDS011;40536;53.194;5.728;2023-04-01T16:44:24;55.20;;;51.92;;
54641;SDS011;40536;53.194;5.728;2023-04-01T16:46:53;67.90;;;63.55;;
54641;SDS011;40536;53.194;5.728;2023-04-01T16:49:42;57.85;;;54.28;;
54641;SDS011;40536;53.194;5.728;2023-04-01T16:57:21;126.47;;;117.80;;
54641;SDS011;40536;53.194;5.728;2023-04-01T17:02:47;41.53;;;38.63;;
54641;SDS011;40536;53.194;5.728;2023-04-01T17:06:15;24.85;;;22.30;;
54641;SDS011;40536;53.194;5.728;2023-04-01T17:10:56;31.05;;;28.77;;
54641;SDS011;40536;53.194;5.728;2023-04-01T17:28:19;21.88;;;19.60;;
54641;SDS011;40536;53.194;5.728;2023-04-01T17:57:55;20.15;;;18.20;;
54641;SDS011;40536;53.194;5.728;2023-04-01T18:11:56;19.02;;;17.45;;
54641;SDS011;40536;53.194;5.728;2023-04-01T18:22:43;21.55;;;19.67;;
54641;SDS011;40536;53.194;5.728;2023-04-01T18:25:14;18.55;;;16.20;;
54641;SDS011;40536;53.194;5.728;2023-04-01T18:27:50;35.88;;;32.53;;
54641;SDS011;40536;53.194;5.728;2023-04-01T18:30:26;30.83;;;28.47;;
54641;SDS011;40536;53.194;5.728;2023-04-01T18:32:59;25.48;;;23.55;;
54641;SDS011;40536;53.194;5.728;2023-04-01T18:38:12;22.48;;;20.35;;
54641;SDS011;40536;53.194;5.728;2023-04-01T18:43:43;36.88;;;34.08;;
54641;SDS011;40536;53.194;5.728;2023-04-01T18:46:30;67.28;;;61.72;;
54641;SDS011;40536;53.194;5.728;2023-04-01T18:49:06;19.45;;;17.48;;
54641;SDS011;40536;53.194;5.728;2023-04-01T18:51:57;22.30;;;17.50;;
54641;SDS011;40536;53.194;5.728;2023-04-01T18:54:33;30.38;;;28.23;;
54641;SDS011;40536;53.194;5.728;2023-04-01T18:57:16;32.45;;;29.95;;
54641;SDS011;40536;53.194;5.728;2023-04-01T18:59:53;30.58;;;28.05;;
54641;SDS011;40536;53.194;5.728;2023-04-01T19:07:51;17.80;;;15.68;;
54641;SDS011;40536;53.194;5.728;2023-04-01T19:21:56;22.45;;;20.38;;
54641;SDS011;40536;53.194;5.728;2023-04-01T19:27:29;31.92;;;29.25;;
54641;SDS011;40536;53.194;5.728;2023-04-01T19:35:40;21.42;;;19.52;;
54641;SDS011;40536;53.194;5.728;2023-04-01T19:46:30;170.20;;;156.30;;
54641;SDS011;40536;53.194;5.728;2023-04-01T19:49:06;26.80;;;24.70;;
54641;SDS011;40536;53.194;5.728;2023-04-01T19:52:00;44.38;;;41.25;;
54641;SDS011;40536;53.194;5.728;2023-04-01T20:28:00;26.65;;;24.42;;
54641;SDS011;40536;53.194;5.728;2023-04-01T20:33:21;19.00;;;17.02;;
54641;SDS011;40536;53.194;5.728;2023-04-01T20:36:44;16.70;;;14.02;;
54641;SDS011;40536;53.194;5.728;2023-04-01T20:44:21;15.68;;;12.98;;
54641;SDS011;40536;53.194;5.728;2023-04-01T20:46:53;19.95;;;17.80;;
54641;SDS011;40536;53.194;5.728;2023-04-01T20:50:02;20.65;;;19.10;;
54641;SDS011;40536;53.194;5.728;2023-04-01T20:55:27;18.75;;;16.95;;
54641;SDS011;40536;53.194;5.728;2023-04-01T21:12:20;16.15;;;12.70;;
54641;SDS011;40536;53.194;5.728;2023-04-01T21:20:45;32.13;;;29.90;;
54641;SDS011;40536;53.194;5.728;2023-04-01T21:37:18;18.05;;;12.65;;
54641;SDS011;40536;53.194;5.728;2023-04-01T21:42:45;37.92;;;35.08;;
54641;SDS011;40536;53.194;5.728;2023-04-01T21:48:52;23.75;;;21.60;;
54641;SDS011;40536;53.194;5.728;2023-04-01T21:57:21;26.48;;;24.42;;
54641;SDS011;40536;53.194;5.728;2023-04-01T22:03:02;20.17;;;14.93;;
54641;SDS011;40536;53.194;5.728;2023-04-01T22:21:38;21.83;;;19.83;;
54641;SDS011;40536;53.194;5.728;2023-04-01T22:30:04;17.77;;;15.48;;
54641;SDS011;40536;53.194;5.728;2023-04-01T22:32:52;18.42;;;14.35;;
54641;SDS011;40536;53.194;5.728;2023-04-01T22:46:15;16.17;;;13.23;;
54641;SDS011;40536;53.194;5.728;2023-04-01T22:49:06;14.45;;;13.18;;
54641;SDS011;40536;53.194;5.728;2023-04-01T22:52:03;30.45;;;28.42;;
54641;SDS011;40536;53.194;5.728;2023-04-01T22:54:41;17.63;;;15.93;;
54641;SDS011;40536;53.194;5.728;2023-04-01T22:57:58;13.23;;;12.02;;
54641;SDS011;40536;53.194;5.728;2023-04-01T23:03:14;16.38;;;14.57;;
54641;SDS011;40536;53.194;5.728;2023-04-01T23:05:50;12.93;;;11.68;;
54641;SDS011;40536;53.194;5.728;2023-04-01T23:11:08;13.55;;;12.25;;
54641;SDS011;40536;53.194;5.728;2023-04-01T23:24:58;17.08;;;15.35;;
54641;SDS011;40536;53.194;5.728;2023-04-01T23:27:30;13.15;;;11.82;;
54641;SDS011;40536;53.194;5.728;2023-04-01T23:30:11;15.50;;;13.57;;
54641;SDS011;40536;53.194;5.728;2023-04-01T23:33:26;11.90;;;10.68;;
54641;SDS011;40536;53.194;5.728;2023-04-01T23:35:55;14.07;;;11.93;;
54641;SDS011;40536;53.194;5.728;2023-04-01T23:38:25;24.42;;;22.48;;
54641;SDS011;40536;53.194;5.728;2023-04-01T23:40:52;15.95;;;14.45;;
54641;SDS011;40536;53.194;5.728;2023-04-01T23:43:27;16.45;;;14.07;;
54641;SDS011;40536;53.194;5.728;2023-04-01T23:46:00;13.32;;;12.02;;
54641;SDS011;40536;53.194;5.728;2023-04-01T23:48:32;14.23;;;13.07;;
54641;SDS011;40536;53.194;5.728;2023-04-01T23:51:02;15.48;;;13.85;;
54641;SDS011;40536;53.194;5.728;2023-04-01T23:53:30;15.65;;;14.10;;
54641;SDS011;40536;53.194;5.728;2023-04-01T23:55:59;15.57;;;13.88;;
54641;SDS011;40536;53.194;5.728;2023-04-01T23:58:44;15.95;;;14.65;;
